Time,TemperatureF,DewpointF,PressureIn,WindDirection,WindDirectionDegrees,WindSpeedMPH,WindSpeedGustMPH,Humidity,HourlyPrecipIn,Conditions,Clouds,dailyrainin,SoftwareType,DateUTC
2013-04-11 10:46:00,69.0,55.5,29.81,SSW,202,4.0,9.0,62,0.00,,---,0.00,VWS V14.01,2013-04-11 14:46:00,
2013-04-11 10:47:00,69.7,54.3,29.81,SW,231,7.0,8.0,58,0.00,,---,0.00,VWS V14.01,2013-04-11 14:47:00,
2013-04-11 10:52:00,69.7,54.8,29.81,WNW,288,4.0,11.0,59,0.00,,---,0.00,VWS V14.01,2013-04-11 14:52:00,
2013-04-11 10:57:00,69.8,54.4,29.81,SW,221,9.0,11.0,58,0.00,,---,0.00,VWS V14.01,2013-04-11 14:57:00,
2013-04-11 11:02:00,69.5,53.6,29.81,South,169,5.0,10.0,57,0.00,,---,0.00,VWS V14.01,2013-04-11 15:02:00,
2013-04-11 11:07:00,70.2,55.2,29.80,SSW,200,5.0,10.0,59,0.00,,---,0.00,VWS V14.01,2013-04-11 15:07:00,
2013-04-11 11:12:00,70.6,54.2,29.80,SSW,212,10.0,13.0,56,0.00,,---,0.00,VWS V14.01,2013-04-11 15:12:00,
2013-04-11 11:17:00,70.5,54.5,29.80,WNW,293,4.0,13.0,57,0.00,,---,0.00,VWS V14.01,2013-04-11 15:17:00,
2013-04-11 11:22:00,70.3,53.9,29.80,SSE,159,2.0,13.0,56,0.00,,---,0.00,VWS V14.01,2013-04-11 15:22:00,
2013-04-11 11:27:00,70.5,54.1,29.80,SSW,202,4.0,13.0,56,0.00,,---,0.00,VWS V14.01,2013-04-11 15:27:00,
2013-04-11 11:32:00,71.1,55.1,29.80,SW,214,4.0,6.0,57,0.00,,---,0.00,VWS V14.01,2013-04-11 15:32:00,
2013-04-11 11:38:00,71.4,53.9,29.80,East,101,1.0,6.0,54,0.00,,---,0.00,VWS V14.01,2013-04-11 15:38:00,
2013-04-11 11:43:00,71.5,53.5,29.80,ESE,103,1.0,6.0,53,0.00,,---,0.00,VWS V14.01,2013-04-11 15:43:00,
2013-04-11 11:48:00,71.4,54.4,29.80,WNW,287,3.0,6.0,55,0.00,,---,0.00,VWS V14.01,2013-04-11 15:48:00,
2013-04-11 11:53:00,71.8,54.8,29.79,ESE,122,1.0,6.0,55,0.00,,---,0.00,VWS V14.01,2013-04-11 15:53:00,
2013-04-11 11:58:00,71.6,54.6,29.79,NW,304,4.0,6.0,55,0.00,,---,0.00,VWS V14.01,2013-04-11 15:58:00,
2013-04-11 12:03:00,71.6,54.6,29.79,WNW,285,4.0,6.0,55,0.00,,---,0.00,VWS V14.01,2013-04-11 16:03:00,
2013-04-11 12:08:00,71.4,55.4,29.79,West,280,2.0,7.0,57,0.00,,---,0.00,VWS V14.01,2013-04-11 16:08:00,
2013-04-11 12:13:00,71.3,53.3,29.78,WNW,287,7.0,9.0,53,0.00,,---,0.00,VWS V14.01,2013-04-11 16:13:00,
2013-04-11 12:18:00,71.6,53.6,29.77,West,267,2.0,9.0,53,0.00,,---,0.00,VWS V14.01,2013-04-11 16:18:00,
2013-04-11 12:23:00,72.1,54.6,29.77,SW,232,2.0,9.0,54,0.00,,---,0.00,VWS V14.01,2013-04-11 16:23:00,
2013-04-11 12:28:00,72.3,53.7,29.77,West,269,4.0,9.0,52,0.00,,---,0.00,VWS V14.01,2013-04-11 16:28:00,
2013-04-11 12:33:00,72.2,53.6,29.77,SSE,166,0.0,6.0,52,0.00,,---,0.00,VWS V14.01,2013-04-11 16:33:00,
2013-04-11 12:38:00,73.2,54.5,29.77,NW,308,1.0,6.0,52,0.00,,---,0.00,VWS V14.01,2013-04-11 16:38:00,
2013-04-11 12:43:00,73.8,54.6,29.77,SE,137,2.0,8.0,51,0.00,,---,0.00,VWS V14.01,2013-04-11 16:43:00,
2013-04-11 12:48:00,73.7,54.5,29.76,SE,124,8.0,8.0,51,0.00,,---,0.00,VWS V14.01,2013-04-11 16:48:00,
2013-04-11 12:53:00,73.3,53.6,29.76,SSE,150,0.0,8.0,50,0.00,,---,0.00,VWS V14.01,2013-04-11 16:53:00,
2013-04-11 12:58:00,73.5,53.2,29.76,ESE,119,4.0,9.0,49,0.00,,---,0.00,VWS V14.01,2013-04-11 16:58:00,
2013-04-11 13:03:00,73.7,53.4,29.76,ESE,122,4.0,9.0,49,0.00,,---,0.00,VWS V14.01,2013-04-11 17:03:00,
2013-04-11 13:08:00,73.7,53.4,29.75,NE,54,2.0,9.0,49,0.00,,---,0.00,VWS V14.01,2013-04-11 17:08:00,
2013-04-11 13:13:00,74.0,53.1,29.75,West,278,0.0,9.0,48,0.00,,---,0.00,VWS V14.01,2013-04-11 17:13:00,
2013-04-11 13:19:00,74.4,52.3,29.75,ESE,120,1.0,9.0,46,0.00,,---,0.00,VWS V14.01,2013-04-11 17:19:00,
2013-04-11 13:24:00,74.9,53.9,29.75,SSE,159,4.0,9.0,48,0.00,,---,0.00,VWS V14.01,2013-04-11 17:24:00,
2013-04-11 13:29:00,75.8,53.0,29.74,ESE,108,11.0,13.0,45,0.00,,---,0.00,VWS V14.01,2013-04-11 17:29:00,
2013-04-11 13:34:00,75.4,51.4,29.74,ESE,117,3.0,12.0,43,0.00,,---,0.00,VWS V14.01,2013-04-11 17:34:00,
2013-04-11 13:39:00,75.4,52.6,29.74,South,179,7.0,12.0,45,0.00,,---,0.00,VWS V14.01,2013-04-11 17:39:00,
2013-04-11 13:44:00,75.3,51.3,29.73,East,96,4.0,12.0,43,0.00,,---,0.00,VWS V14.01,2013-04-11 17:44:00,
2013-04-11 13:49:00,75.7,51.0,29.73,SSW,208,5.0,12.0,42,0.00,,---,0.00,VWS V14.01,2013-04-11 17:49:00,
2013-04-11 13:54:00,76.0,50.6,29.73,SE,134,6.0,16.0,41,0.00,,---,0.00,VWS V14.01,2013-04-11 17:54:00,
2013-04-11 13:59:00,76.7,49.9,29.72,SSE,147,7.0,16.0,39,0.00,,---,0.00,VWS V14.01,2013-04-11 17:59:00,
2013-04-11 14:04:00,75.7,49.7,29.72,East,95,6.0,18.0,40,0.00,,---,0.00,VWS V14.01,2013-04-11 18:04:00,
2013-04-11 14:09:00,75.6,50.9,29.72,SE,141,3.0,18.0,42,0.00,,---,0.00,VWS V14.01,2013-04-11 18:09:00,
2013-04-11 14:14:00,75.3,48.7,29.72,SE,141,3.0,18.0,39,0.00,,---,0.00,VWS V14.01,2013-04-11 18:14:00,
2013-04-11 14:19:00,75.1,48.5,29.71,ESE,115,10.0,18.0,39,0.00,,---,0.00,VWS V14.01,2013-04-11 18:19:00,
2013-04-11 14:24:00,75.2,50.6,29.71,SE,146,3.0,18.0,42,0.00,,---,0.00,VWS V14.01,2013-04-11 18:24:00,
2013-04-11 14:29:00,75.4,48.0,29.71,SE,146,2.0,18.0,38,0.00,,---,0.00,VWS V14.01,2013-04-11 18:29:00,
2013-04-11 14:34:00,75.3,48.7,29.71,SE,145,2.0,6.0,39,0.00,,---,0.00,VWS V14.01,2013-04-11 18:34:00,
2013-04-11 14:39:00,75.4,51.4,29.71,SE,129,2.0,6.0,43,0.00,,---,0.00,VWS V14.01,2013-04-11 18:39:00,
2013-04-11 14:44:00,75.6,50.9,29.71,SSE,160,4.0,9.0,42,0.00,,---,0.00,VWS V14.01,2013-04-11 18:44:00,
2013-04-11 14:49:00,75.3,49.3,29.71,ESE,122,9.0,10.0,40,0.00,,---,0.00,VWS V14.01,2013-04-11 18:49:00,
2013-04-11 14:54:00,74.8,49.5,29.71,SE,125,8.0,16.0,41,0.00,,---,0.00,VWS V14.01,2013-04-11 18:54:00,
2013-04-11 15:00:00,74.5,48.6,29.70,SSE,148,3.0,3.0,40,0.00,,---,0.00,VWS V14.01,2013-04-11 19:00:00,
2013-04-11 15:05:00,75.0,47.7,29.70,SE,124,8.0,11.0,38,0.00,,---,0.00,VWS V14.01,2013-04-11 19:05:00,
2013-04-11 15:10:00,75.0,46.3,29.70,SE,139,6.0,11.0,36,0.00,,---,0.00,VWS V14.01,2013-04-11 19:10:00,
2013-04-11 15:15:00,75.0,45.5,29.69,ESE,116,13.0,14.0,35,0.00,,---,0.00,VWS V14.01,2013-04-11 19:15:00,
2013-04-11 15:20:00,74.4,45.0,29.69,SW,221,4.0,14.0,35,0.00,,---,0.00,VWS V14.01,2013-04-11 19:20:00,
2013-04-11 15:25:00,74.7,46.7,29.69,ESE,120,4.0,14.0,37,0.00,,---,0.00,VWS V14.01,2013-04-11 19:25:00,
2013-04-11 15:30:00,74.8,48.2,29.68,West,278,1.0,4.0,39,0.00,,---,0.00,VWS V14.01,2013-04-11 19:30:00,
2013-04-11 15:35:00,75.3,46.5,29.68,ESE,109,4.0,9.0,36,0.00,,---,0.00,VWS V14.01,2013-04-11 19:35:00,
2013-04-11 15:40:00,75.4,47.3,29.67,North,9,3.0,10.0,37,0.00,,---,0.00,VWS V14.01,2013-04-11 19:40:00,
2013-04-11 15:45:00,75.5,46.0,29.67,SE,139,5.0,10.0,35,0.00,,---,0.00,VWS V14.01,2013-04-11 19:45:00,
2013-04-11 15:50:00,75.4,45.1,29.67,ESE,103,3.0,15.0,34,0.00,,---,0.00,VWS V14.01,2013-04-11 19:50:00,
2013-04-11 15:55:00,75.1,43.3,29.67,ESE,121,6.0,15.0,32,0.00,,---,0.00,VWS V14.01,2013-04-11 19:55:00,
2013-04-11 16:00:00,75.5,45.2,29.66,South,169,2.0,5.0,34,0.00,,---,0.00,VWS V14.01,2013-04-11 20:00:00,
2013-04-11 16:05:00,76.4,44.4,29.66,SSW,206,7.0,8.0,32,0.00,,---,0.00,VWS V14.01,2013-04-11 20:05:00,
2013-04-11 16:10:00,76.6,46.9,29.66,SE,134,4.0,9.0,35,0.00,,---,0.00,VWS V14.01,2013-04-11 20:10:00,
2013-04-11 16:15:00,76.8,46.3,29.65,SSW,212,3.0,12.0,34,0.00,,---,0.00,VWS V14.01,2013-04-11 20:15:00,
2013-04-11 16:20:00,76.9,45.6,29.65,South,181,1.0,14.0,33,0.00,,---,0.00,VWS V14.01,2013-04-11 20:20:00,
2013-04-11 16:25:00,76.7,45.5,29.65,East,101,10.0,18.0,33,0.00,,---,0.00,VWS V14.01,2013-04-11 20:25:00,
2013-04-11 16:30:00,76.2,44.2,29.65,ESE,110,8.0,8.0,32,0.00,,---,0.00,VWS V14.01,2013-04-11 20:30:00,
2013-04-11 16:35:00,76.5,48.3,29.64,SE,135,5.0,11.0,37,0.00,,---,0.00,VWS V14.01,2013-04-11 20:35:00,
2013-04-11 16:40:00,76.4,46.8,29.64,East,101,13.0,14.0,35,0.00,,---,0.00,VWS V14.01,2013-04-11 20:40:00,
2013-04-11 16:45:00,76.5,48.3,29.64,ESE,121,9.0,15.0,37,0.00,,---,0.00,VWS V14.01,2013-04-11 20:45:00,
2013-04-11 16:50:00,76.3,47.4,29.63,SE,125,4.0,15.0,36,0.00,,---,0.00,VWS V14.01,2013-04-11 20:50:00,
2013-04-11 16:55:00,76.2,47.3,29.63,East,79,8.0,15.0,36,0.00,,---,0.00,VWS V14.01,2013-04-11 20:55:00,
2013-04-11 17:00:00,76.3,48.1,29.63,SE,124,5.0,5.0,37,0.00,,---,0.00,VWS V14.01,2013-04-11 21:00:00,
2013-04-11 17:05:00,76.3,50.2,29.63,SSE,149,5.0,11.0,40,0.00,,---,0.00,VWS V14.01,2013-04-11 21:05:00,
2013-04-11 17:10:00,76.3,51.5,29.63,East,86,4.0,11.0,42,0.00,,---,0.00,VWS V14.01,2013-04-11 21:10:00,
2013-04-11 17:15:00,76.1,50.7,29.62,SE,136,10.0,13.0,41,0.00,,---,0.00,VWS V14.01,2013-04-11 21:15:00,
2013-04-11 17:20:00,75.2,51.2,29.62,ESE,107,13.0,15.0,43,0.00,,---,0.00,VWS V14.01,2013-04-11 21:20:00,
2013-04-11 17:26:00,75.0,52.2,29.62,ENE,63,8.0,15.0,45,0.00,,---,0.00,VWS V14.01,2013-04-11 21:26:00,
2013-04-11 17:30:00,75.0,51.6,29.62,SE,133,6.0,14.0,44,0.00,,---,0.00,VWS V14.01,2013-04-11 21:30:00,
2013-04-11 17:36:00,74.9,51.5,29.62,ESE,121,6.0,16.0,44,0.00,,---,0.00,VWS V14.01,2013-04-11 21:36:00,
2013-04-11 17:41:00,74.8,52.1,29.62,SE,134,8.0,18.0,45,0.00,,---,0.00,VWS V14.01,2013-04-11 21:41:00,
2013-04-11 17:46:00,74.6,52.5,29.62,SE,133,5.0,18.0,46,0.00,,---,0.00,VWS V14.01,2013-04-11 21:46:00,
2013-04-11 17:51:00,74.2,51.5,29.62,SE,129,6.0,18.0,45,0.00,,---,0.00,VWS V14.01,2013-04-11 21:51:00,
2013-04-11 17:56:00,73.9,52.4,29.63,ESE,110,9.0,18.0,47,0.00,,---,0.00,VWS V14.01,2013-04-11 21:56:00,
2013-04-11 18:01:00,73.8,52.3,29.63,SE,127,8.0,9.0,47,0.00,,---,0.00,VWS V14.01,2013-04-11 22:01:00,
2013-04-11 18:06:00,73.7,52.8,29.62,ESE,121,8.0,15.0,48,0.00,,---,0.00,VWS V14.01,2013-04-11 22:06:00,
2013-04-11 18:11:00,73.5,52.6,29.63,ESE,117,3.0,19.0,48,0.00,,---,0.00,VWS V14.01,2013-04-11 22:11:00,
2013-04-11 18:16:00,73.1,52.3,29.63,SSE,152,7.0,19.0,48,0.00,,---,0.00,VWS V14.01,2013-04-11 22:16:00,
2013-04-11 18:21:00,72.9,52.6,29.63,ESE,115,7.0,19.0,49,0.00,,---,0.00,VWS V14.01,2013-04-11 22:21:00,
2013-04-11 18:26:00,72.7,53.0,29.63,SW,229,9.0,21.0,50,0.00,,---,0.00,VWS V14.01,2013-04-11 22:26:00,
2013-04-11 18:31:00,72.6,52.9,29.63,SE,126,9.0,16.0,50,0.00,,---,0.00,VWS V14.01,2013-04-11 22:31:00,
2013-04-11 18:36:00,72.5,53.4,29.63,SSE,148,5.0,18.0,51,0.00,,---,0.00,VWS V14.01,2013-04-11 22:36:00,
2013-04-11 18:41:00,72.3,52.6,29.63,SE,131,6.0,19.0,50,0.00,,---,0.00,VWS V14.01,2013-04-11 22:41:00,
2013-04-11 18:46:00,72.1,52.5,29.63,SE,124,8.0,19.0,50,0.00,,---,0.00,VWS V14.01,2013-04-11 22:46:00,
2013-04-11 18:51:00,71.9,52.8,29.63,SSE,165,6.0,19.0,51,0.00,,---,0.00,VWS V14.01,2013-04-11 22:51:00,
2013-04-11 18:56:00,71.7,52.1,29.63,ESE,120,9.0,19.0,50,0.00,,---,0.00,VWS V14.01,2013-04-11 22:56:00,
2013-04-11 19:02:00,71.5,52.4,29.64,SE,134,6.0,13.0,51,0.00,,---,0.00,VWS V14.01,2013-04-11 23:02:00,
2013-04-11 19:07:00,71.3,52.3,29.63,ESE,123,14.0,14.0,51,0.00,,---,0.00,VWS V14.01,2013-04-11 23:07:00,
2013-04-11 19:12:00,71.2,52.2,29.64,SE,131,12.0,15.0,51,0.00,,---,0.00,VWS V14.01,2013-04-11 23:12:00,
2013-04-11 19:17:00,70.9,52.4,29.64,SSE,155,13.0,18.0,52,0.00,,---,0.00,VWS V14.01,2013-04-11 23:17:00,
2013-04-11 19:22:00,70.7,52.2,29.64,SE,124,7.0,20.0,52,0.00,,---,0.00,VWS V14.01,2013-04-11 23:22:00,
2013-04-11 19:27:00,70.4,52.5,29.63,SE,124,7.0,20.0,53,0.00,,---,0.00,VWS V14.01,2013-04-11 23:27:00,
2013-04-11 19:32:00,70.1,52.2,29.63,SE,131,6.0,13.0,53,0.00,,---,0.00,VWS V14.01,2013-04-11 23:32:00,
2013-04-11 19:37:00,70.0,52.6,29.64,ENE,71,7.0,14.0,54,0.00,,---,0.00,VWS V14.01,2013-04-11 23:37:00,
2013-04-11 19:42:00,69.7,52.3,29.64,SE,134,7.0,14.0,54,0.00,,---,0.00,VWS V14.01,2013-04-11 23:42:00,
2013-04-11 19:47:00,69.5,51.6,29.64,SE,133,10.0,14.0,53,0.00,,---,0.00,VWS V14.01,2013-04-11 23:47:00,
2013-04-11 19:52:00,69.6,51.7,29.64,ESE,114,10.0,25.0,53,0.00,,---,0.00,VWS V14.01,2013-04-11 23:52:00,
2013-04-11 19:57:00,69.4,52.0,29.63,East,98,10.0,25.0,54,0.00,,---,0.00,VWS V14.01,2013-04-11 23:57:00,
2013-04-11 20:02:00,69.1,51.8,29.63,ESE,110,9.0,17.0,54,0.00,,---,0.00,VWS V14.01,2013-04-12 00:02:00,
2013-04-11 20:07:00,68.8,52.0,29.62,ESE,117,6.0,17.0,55,0.00,,---,0.00,VWS V14.01,2013-04-12 00:07:00,
2013-04-11 20:12:00,68.6,52.3,29.62,South,180,8.0,17.0,56,0.00,,---,0.00,VWS V14.01,2013-04-12 00:12:00,
2013-04-11 20:17:00,68.6,52.3,29.62,SE,132,8.0,17.0,56,0.00,,---,0.00,VWS V14.01,2013-04-12 00:17:00,
2013-04-11 20:22:00,68.3,52.0,29.62,ESE,122,7.0,17.0,56,0.00,,---,0.00,VWS V14.01,2013-04-12 00:22:00,
2013-04-11 20:27:00,68.2,52.4,29.61,East,82,5.0,17.0,57,0.00,,---,0.00,VWS V14.01,2013-04-12 00:27:00,
2013-04-11 20:32:00,68.0,52.2,29.61,SE,128,7.0,12.0,57,0.00,,---,0.00,VWS V14.01,2013-04-12 00:32:00,
2013-04-11 20:37:00,68.0,52.2,29.61,ESE,120,9.0,15.0,57,0.00,,---,0.00,VWS V14.01,2013-04-12 00:37:00,
2013-04-11 20:42:00,67.8,52.5,29.61,ESE,119,9.0,15.0,58,0.00,,---,0.00,VWS V14.01,2013-04-12 00:42:00,
2013-04-11 20:47:00,67.8,52.5,29.61,ESE,117,9.0,16.0,58,0.00,,---,0.00,VWS V14.01,2013-04-12 00:47:00,
2013-04-11 20:52:00,67.7,52.4,29.62,SE,124,11.0,17.0,58,0.00,,---,0.00,VWS V14.01,2013-04-12 00:52:00,
2013-04-11 20:57:00,67.7,52.4,29.63,ESE,120,13.0,18.0,58,0.00,,---,0.00,VWS V14.01,2013-04-12 00:57:00,
2013-04-11 21:02:00,67.7,52.4,29.63,SE,144,14.0,15.0,58,0.00,,---,0.00,VWS V14.01,2013-04-12 01:02:00,
2013-04-11 21:07:00,67.8,52.0,29.63,SE,135,9.0,18.0,57,0.00,,---,0.00,VWS V14.01,2013-04-12 01:07:00,
2013-04-11 21:12:00,67.7,51.9,29.63,SE,129,7.0,18.0,57,0.00,,---,0.00,VWS V14.01,2013-04-12 01:12:00,
2013-04-11 21:17:00,67.7,51.9,29.63,ESE,103,10.0,18.0,57,0.00,,---,0.00,VWS V14.01,2013-04-12 01:17:00,
2013-04-11 21:23:00,67.6,52.3,29.63,SE,128,8.0,18.0,58,0.00,,---,0.00,VWS V14.01,2013-04-12 01:23:00,
2013-04-11 21:28:00,67.5,52.2,29.62,SE,141,9.0,18.0,58,0.00,,---,0.00,VWS V14.01,2013-04-12 01:28:00,
2013-04-11 21:33:00,67.3,52.0,29.61,SE,129,5.0,10.0,58,0.00,,---,0.00,VWS V14.01,2013-04-12 01:33:00,
2013-04-11 21:38:00,67.3,52.0,29.62,ESE,122,7.0,16.0,58,0.00,,---,0.00,VWS V14.01,2013-04-12 01:38:00,
2013-04-11 21:43:00,67.2,51.9,29.62,East,96,7.0,16.0,58,0.00,,---,0.00,VWS V14.01,2013-04-12 01:43:00,
2013-04-11 21:48:00,66.8,52.0,29.62,ESE,120,7.0,16.0,59,0.00,,---,0.00,VWS V14.01,2013-04-12 01:48:00,
2013-04-11 21:53:00,66.7,51.9,29.62,ESE,113,9.0,16.0,59,0.00,,---,0.00,VWS V14.01,2013-04-12 01:53:00,
2013-04-11 21:58:00,66.5,51.8,29.62,ENE,75,6.0,16.0,59,0.00,,---,0.00,VWS V14.01,2013-04-12 01:58:00,
2013-04-11 22:03:00,66.4,51.7,29.62,East,79,9.0,12.0,59,0.00,,---,0.00,VWS V14.01,2013-04-12 02:03:00,
2013-04-11 22:08:00,66.3,52.0,29.62,East,100,5.0,15.0,60,0.00,,---,0.00,VWS V14.01,2013-04-12 02:08:00,
2013-04-11 22:13:00,66.2,51.9,29.62,SE,124,9.0,15.0,60,0.00,,---,0.00,VWS V14.01,2013-04-12 02:13:00,
2013-04-11 22:18:00,66.4,52.6,29.62,SE,132,7.0,17.0,61,0.00,,---,0.00,VWS V14.01,2013-04-12 02:18:00,
2013-04-11 22:23:00,66.3,52.5,29.62,ESE,110,8.0,17.0,61,0.00,,---,0.00,VWS V14.01,2013-04-12 02:23:00,
2013-04-11 22:28:00,66.2,52.8,29.61,SE,133,8.0,17.0,62,0.00,,---,0.00,VWS V14.01,2013-04-12 02:28:00,
2013-04-11 22:33:00,66.2,53.2,29.61,SE,127,7.0,13.0,63,0.00,,---,0.00,VWS V14.01,2013-04-12 02:33:00,
2013-04-11 22:38:00,66.1,53.6,29.61,SE,143,7.0,16.0,64,0.00,,---,0.00,VWS V14.01,2013-04-12 02:38:00,
2013-04-11 22:43:00,66.1,54.0,29.61,ESE,122,11.0,17.0,65,0.00,,---,0.00,VWS V14.01,2013-04-12 02:43:00,
2013-04-11 22:48:00,66.0,54.3,29.61,ESE,119,5.0,17.0,66,0.00,,---,0.00,VWS V14.01,2013-04-12 02:48:00,
2013-04-11 22:53:00,66.0,54.7,29.61,ESE,104,9.0,19.0,67,0.00,,---,0.00,VWS V14.01,2013-04-12 02:53:00,
2013-04-11 22:58:00,66.1,54.8,29.61,ESE,117,14.0,19.0,67,0.00,,---,0.00,VWS V14.01,2013-04-12 02:58:00,
2013-04-11 23:03:00,66.0,55.2,29.61,ESE,120,10.0,15.0,68,0.00,,---,0.00,VWS V14.01,2013-04-12 03:03:00,
2013-04-11 23:08:00,65.9,55.5,29.60,East,96,7.0,18.0,69,0.00,,---,0.00,VWS V14.01,2013-04-12 03:08:00,
2013-04-11 23:13:00,65.9,55.5,29.61,SE,130,11.0,24.0,69,0.00,,---,0.00,VWS V14.01,2013-04-12 03:13:00,
2013-04-11 23:18:00,65.9,55.8,29.61,SSE,165,6.0,24.0,70,0.00,,---,0.00,VWS V14.01,2013-04-12 03:18:00,
2013-04-11 23:23:00,65.7,56.0,29.61,SE,131,7.0,24.0,71,0.00,,---,0.00,VWS V14.01,2013-04-12 03:23:00,
2013-04-11 23:28:00,65.1,56.6,29.61,ENE,74,6.0,24.0,74,0.00,,---,0.00,VWS V14.01,2013-04-12 03:28:00,
2013-04-11 23:34:00,64.2,57.2,29.61,ESE,118,11.0,14.0,78,0.01,,---,0.01,VWS V14.01,2013-04-12 03:34:00,
2013-04-11 23:39:00,63.3,57.4,29.60,ESE,120,10.0,14.0,81,0.02,,---,0.02,VWS V14.01,2013-04-12 03:39:00,
2013-04-11 23:44:00,62.8,57.2,29.60,ESE,110,8.0,14.0,82,0.02,,---,0.02,VWS V14.01,2013-04-12 03:44:00,
2013-04-11 23:49:00,62.9,57.7,29.60,ESE,105,6.0,15.0,83,0.02,,---,0.02,VWS V14.01,2013-04-12 03:49:00,
2013-04-11 23:54:00,62.6,57.4,29.60,NE,56,9.0,15.0,83,0.03,,---,0.03,VWS V14.01,2013-04-12 03:54:00,
2013-04-11 23:59:00,62.5,57.6,29.59,SE,132,6.0,15.0,84,0.03,,---,0.03,VWS V14.01,2013-04-12 03:59:00,